createdAt,value
2023-03-02T00:00:03.432Z,84.61
2023-03-02T00:01:03.432Z,84.08
2023-03-02T00:02:03.448Z,85.03
2023-03-02T00:03:03.464Z,86.82
2023-03-02T00:04:03.526Z,87.55
2023-03-02T00:05:03.392Z,88.29
2023-03-02T00:06:03.377Z,88.29
2023-03-02T00:07:03.384Z,89.39
2023-03-02T00:08:03.356Z,90.55
2023-03-02T00:09:03.353Z,90.65
2023-03-02T00:10:03.341Z,91.53
2023-03-02T00:11:03.334Z,92.06
2023-03-02T00:12:03.335Z,92.84
2023-03-02T00:13:03.322Z,92.41
2023-03-02T00:14:03.299Z,92.67
2023-03-02T00:15:03.307Z,92.67
2023-03-02T00:16:03.434Z,94.29
2023-03-02T00:17:03.338Z,94.51
2023-03-02T00:18:03.268Z,94.71
2023-03-02T00:19:03.277Z,95.03
2023-03-02T00:20:03.248Z,95.07
2023-03-02T00:21:03.248Z,95.29
2023-03-02T00:22:03.238Z,96.39
2023-03-02T00:23:03.220Z,96.91
2023-03-02T00:24:03.213Z,96.91
2023-03-02T00:25:03.224Z,97.61
2023-03-02T00:26:03.191Z,97.02
2023-03-02T00:27:03.208Z,96.49
2023-03-02T00:28:03.172Z,97.08
2023-03-02T00:29:03.161Z,96.87
2023-03-02T00:30:03.144Z,96.23
2023-03-02T00:31:03.236Z,95.86
2023-03-02T00:32:03.202Z,95.75
2023-03-02T00:33:03.124Z,95.64
2023-03-02T00:34:03.129Z,95.75
2023-03-02T00:35:03.105Z,96.55
2023-03-02T00:36:03.191Z,96.09
2023-03-02T00:37:03.128Z,94.93
2023-03-02T00:38:03.073Z,95.45
2023-03-02T00:39:03.071Z,95.77
2023-03-02T00:40:03.047Z,95.35
2023-03-02T00:41:03.045Z,94.82
2023-03-02T00:42:03.053Z,94.29
2023-03-02T00:43:03.033Z,93.98
2023-03-02T00:44:03.018Z,93.77
2023-03-02T00:45:03.017Z,93.45
2023-03-02T00:46:03.020Z,92.25
2023-03-02T00:47:03.084Z,92.88
2023-03-02T00:48:02.971Z,93.83
2023-03-02T00:49:02.974Z,93.51
2023-03-02T00:50:02.964Z,91.93
2023-03-02T00:51:02.953Z,92.77
2023-03-02T00:52:02.951Z,92.99
2023-03-02T00:53:02.929Z,93.98
2023-03-02T00:54:02.965Z,94.51
2023-03-02T00:55:02.909Z,94.61
2023-03-02T00:56:02.901Z,94.61
2023-03-02T00:57:02.930Z,94.19
2023-03-02T00:58:02.871Z,94.76
2023-03-02T00:59:02.874Z,95.24
2023-03-02T01:00:02.853Z,94.51
2023-03-02T01:01:08.859Z,93.34
2023-03-02T01:02:02.900Z,93.60
2023-03-02T01:03:02.950Z,94.44
2023-03-02T01:04:04.381Z,94.71
2023-03-02T01:05:02.815Z,93.77
2023-03-02T01:06:02.804Z,93.55
2023-03-02T01:07:02.814Z,93.30
2023-03-02T01:08:02.782Z,92.67
2023-03-02T01:09:02.775Z,92.77
2023-03-02T01:10:02.760Z,91.09
2023-03-02T01:11:02.753Z,90.94
2023-03-02T01:12:02.769Z,90.98
2023-03-02T01:13:02.740Z,91.19
2023-03-02T01:14:02.725Z,91.09
2023-03-02T01:15:02.728Z,91.72
2023-03-02T01:16:02.828Z,92.82
2023-03-02T01:17:02.752Z,91.61
2023-03-02T01:18:02.688Z,92.67
2023-03-02T01:19:02.687Z,92.14
2023-03-02T01:20:02.676Z,92.14
2023-03-02T01:21:02.667Z,91.61
2023-03-02T01:22:02.664Z,91.76
2023-03-02T01:23:02.642Z,91.30
2023-03-02T01:24:02.648Z,89.93
2023-03-02T01:25:02.620Z,89.51
2023-03-02T01:26:02.612Z,89.15
2023-03-02T01:27:02.607Z,89.29
2023-03-02T01:28:02.612Z,89.29
2023-03-02T01:29:02.607Z,89.61
2023-03-02T01:30:02.596Z,91.13
2023-03-02T01:31:02.578Z,92.82
2023-03-02T01:32:02.704Z,92.60
2023-03-02T01:33:02.567Z,93.45
2023-03-02T01:34:02.557Z,93.13
2023-03-02T01:35:02.530Z,93.03
2023-03-02T01:36:02.603Z,92.86
2023-03-02T01:37:02.526Z,92.65
2023-03-02T01:38:02.493Z,93.07
2023-03-02T01:39:02.534Z,93.01
2023-03-02T01:40:02.498Z,93.11
2023-03-02T01:41:02.467Z,93.47
2023-03-02T01:42:02.472Z,94.10
2023-03-02T01:43:02.441Z,94.78
2023-03-02T01:44:02.438Z,94.89
2023-03-02T01:45:02.444Z,95.12
2023-03-02T01:46:02.471Z,94.51
2023-03-02T01:47:02.428Z,93.57
2023-03-02T01:48:02.404Z,90.73
2023-03-02T01:49:02.386Z,90.94
2023-03-02T01:50:02.397Z,90.73
2023-03-02T01:51:02.373Z,90.52
2023-03-02T01:52:02.385Z,90.62
2023-03-02T01:53:04.071Z,90.88
2023-03-02T01:54:02.340Z,91.24
2023-03-02T01:55:02.371Z,91.76
2023-03-02T01:56:02.330Z,93.24
2023-03-02T01:57:02.331Z,94.51
2023-03-02T01:58:02.308Z,93.66
2023-03-02T01:59:02.289Z,91.93
2023-03-02T02:00:02.293Z,90.77
2023-03-02T02:01:02.340Z,90.88
2023-03-02T02:02:02.302Z,90.45
2023-03-02T02:03:02.252Z,91.44
2023-03-02T02:04:02.331Z,92.60
2023-03-02T02:05:02.234Z,93.03
2023-03-02T02:06:02.236Z,92.92
2023-03-02T02:07:02.226Z,92.18
2023-03-02T02:08:02.206Z,92.60
2023-03-02T02:09:02.197Z,91.86
2023-03-02T02:10:02.189Z,91.76
2023-03-02T02:11:02.172Z,92.12
2023-03-02T02:12:02.181Z,92.76
2023-03-02T02:13:02.150Z,93.74
2023-03-02T02:14:02.154Z,95.01
2023-03-02T02:15:02.137Z,95.01
2023-03-02T02:16:02.127Z,95.33
2023-03-02T02:17:02.229Z,95.81
2023-03-02T02:18:02.117Z,94.97
2023-03-02T02:19:02.111Z,93.55
2023-03-02T02:20:02.086Z,93.24
2023-03-02T02:21:02.076Z,94.02
2023-03-02T02:22:02.073Z,93.66
2023-03-02T02:23:02.068Z,93.03
2023-03-02T02:24:02.064Z,92.71
2023-03-02T02:25:02.042Z,93.28
2023-03-02T02:26:02.036Z,93.60
2023-03-02T02:27:02.014Z,94.86
2023-03-02T02:28:02.019Z,94.34
2023-03-02T02:29:01.997Z,94.12
2023-03-02T02:30:01.992Z,94.27
2023-03-02T02:31:01.975Z,94.27
2023-03-02T02:32:02.091Z,94.70
2023-03-02T02:33:01.989Z,94.80
2023-03-02T02:34:01.952Z,94.42
2023-03-02T02:35:01.934Z,95.06
2023-03-02T02:36:02.034Z,95.84
2023-03-02T02:37:01.915Z,96.58
2023-03-02T02:38:01.960Z,96.85
2023-03-02T02:39:01.900Z,95.94
2023-03-02T02:40:01.904Z,95.73
2023-03-02T02:41:01.885Z,96.89
2023-03-02T02:42:01.871Z,97.89
2023-03-02T02:43:01.876Z,97.78
2023-03-02T02:44:01.873Z,97.67
2023-03-02T02:45:01.843Z,98.31
2023-03-02T02:46:01.910Z,98.31
2023-03-02T02:47:01.831Z,98.31
2023-03-02T02:48:01.816Z,97.67
2023-03-02T02:49:01.827Z,97.72
2023-03-02T02:50:01.797Z,98.04
2023-03-02T02:51:01.783Z,99.10
2023-03-02T02:52:01.777Z,99.20
2023-03-02T02:53:01.773Z,98.99
2023-03-02T02:54:01.756Z,99.52
2023-03-02T02:55:01.744Z,99.20
2023-03-02T02:56:01.739Z,99.10
2023-03-02T02:57:01.735Z,99.10
2023-03-02T02:58:01.765Z,99.10
2023-03-02T02:59:01.708Z,99.20
2023-03-02T03:00:01.728Z,99.26
2023-03-02T03:01:01.714Z,98.37
2023-03-02T03:02:01.680Z,97.11
2023-03-02T03:03:01.675Z,96.26
2023-03-02T03:04:01.762Z,96.47
2023-03-02T03:05:01.648Z,96.15
2023-03-02T03:06:01.639Z,96.94
2023-03-02T03:07:01.632Z,97.36
2023-03-02T03:08:01.642Z,97.36
2023-03-02T03:09:01.611Z,97.78
2023-03-02T03:10:01.653Z,97.67
2023-03-02T03:11:01.589Z,97.47
2023-03-02T03:12:01.585Z,97.05
2023-03-02T03:13:01.604Z,97.05
2023-03-02T03:14:01.563Z,96.62
2023-03-02T03:15:01.578Z,96.73
2023-03-02T03:16:01.553Z,97.89
2023-03-02T03:17:01.562Z,98.31
2023-03-02T03:18:01.522Z,98.42
2023-03-02T03:19:01.511Z,98.63
2023-03-02T03:20:01.522Z,98.84
2023-03-02T03:21:01.496Z,99.05
2023-03-02T03:22:01.486Z,98.94
2023-03-02T03:23:01.473Z,99.26
2023-03-02T03:24:01.462Z,99.11
2023-03-02T03:25:01.470Z,98.69
2023-03-02T03:26:01.446Z,99.37
2023-03-02T03:27:01.429Z,99.58
2023-03-02T03:28:01.428Z,99.99
2023-03-02T03:29:01.408Z,99.99
2023-03-02T03:30:01.416Z,99.99
2023-03-02T03:31:01.420Z,99.99
2023-03-02T03:32:01.431Z,99.99
2023-03-02T03:33:01.372Z,99.99
2023-03-02T03:34:01.363Z,99.99
2023-03-02T03:35:01.369Z,99.99
2023-03-02T03:36:01.407Z,99.99
2023-03-02T03:37:01.329Z,99.96
2023-03-02T03:38:01.328Z,99.70
2023-03-02T03:39:01.310Z,98.65
2023-03-02T03:40:01.355Z,98.54
2023-03-02T03:41:01.299Z,98.22
2023-03-02T03:42:01.290Z,97.85
2023-03-02T03:43:01.320Z,97.95
2023-03-02T03:44:01.269Z,98.69
2023-03-02T03:45:01.323Z,98.80
2023-03-02T03:46:01.298Z,98.54
2023-03-02T03:47:01.247Z,98.75
2023-03-02T03:48:01.238Z,98.12
2023-03-02T03:49:01.232Z,97.31
2023-03-02T03:50:01.223Z,97.25
2023-03-02T03:51:01.194Z,97.15
2023-03-02T03:52:01.195Z,97.51
2023-03-02T03:53:03.641Z,98.25
2023-03-02T03:54:01.178Z,98.57
2023-03-02T03:55:01.183Z,98.88
2023-03-02T03:56:01.154Z,99.10
2023-03-02T03:57:01.139Z,98.50
2023-03-02T03:58:01.145Z,98.82
2023-03-02T03:59:01.114Z,99.35
2023-03-02T04:00:01.126Z,99.99
2023-03-02T04:01:01.103Z,99.99
2023-03-02T04:02:01.098Z,99.99
2023-03-02T04:03:01.174Z,99.99
2023-03-02T04:04:01.083Z,99.99
2023-03-02T04:05:01.060Z,99.99
2023-03-02T04:06:01.051Z,99.99
2023-03-02T04:07:01.040Z,99.99
2023-03-02T04:08:01.043Z,99.99
2023-03-02T04:09:01.022Z,99.99
2023-03-02T04:10:01.014Z,99.99
2023-03-02T04:11:01.002Z,99.99
2023-03-02T04:12:01.006Z,99.99
2023-03-02T04:13:01.003Z,99.99
2023-03-02T04:14:00.987Z,99.99
2023-03-02T04:15:00.959Z,99.99
2023-03-02T04:16:01.031Z,99.99
2023-03-02T04:17:00.940Z,99.99
2023-03-02T04:18:00.949Z,99.99
2023-03-02T04:19:00.918Z,99.99
2023-03-02T04:20:00.916Z,99.67
2023-03-02T04:21:00.920Z,99.14
2023-03-02T04:22:00.893Z,99.46
2023-03-02T04:23:00.895Z,99.71
2023-03-02T04:24:00.877Z,99.40
2023-03-02T04:25:00.865Z,99.19
2023-03-02T04:26:00.856Z,99.87
2023-03-02T04:27:00.849Z,99.76
2023-03-02T04:28:00.858Z,99.99
2023-03-02T04:29:00.828Z,99.99
2023-03-02T04:30:00.822Z,99.99
2023-03-02T04:31:00.892Z,99.99
2023-03-02T04:32:00.858Z,99.99
2023-03-02T04:33:00.839Z,99.99
2023-03-02T04:34:00.788Z,99.99
2023-03-02T04:35:00.789Z,99.99
2023-03-02T04:36:00.812Z,99.99
2023-03-02T04:37:00.766Z,99.99
2023-03-02T04:38:00.773Z,99.99
2023-03-02T04:39:00.740Z,99.99
2023-03-02T04:40:00.736Z,99.99
2023-03-02T04:41:00.733Z,99.99
2023-03-02T04:42:00.719Z,99.99
2023-03-02T04:43:00.715Z,99.99
2023-03-02T04:44:00.704Z,99.99
2023-03-02T04:45:00.686Z,99.99
2023-03-02T04:46:00.699Z,99.99
2023-03-02T04:47:00.709Z,99.99
2023-03-02T04:48:00.686Z,99.99
2023-03-02T04:49:00.649Z,99.99
2023-03-02T04:50:00.646Z,99.99
2023-03-02T04:51:00.634Z,99.99
2023-03-02T04:52:00.624Z,99.99
2023-03-02T04:53:00.639Z,99.99
2023-03-02T04:54:00.616Z,99.99
2023-03-02T04:55:00.589Z,99.99
2023-03-02T04:56:00.602Z,99.99
2023-03-02T04:57:00.572Z,99.99
2023-03-02T04:58:00.567Z,99.99
2023-03-02T04:59:00.566Z,99.99
2023-03-02T05:00:00.551Z,99.99
2023-03-02T05:01:00.550Z,99.99
2023-03-02T05:02:00.596Z,99.99
2023-03-02T05:03:00.535Z,99.99
2023-03-02T05:04:02.796Z,99.99
2023-03-02T05:05:00.616Z,99.99
2023-03-02T05:06:00.509Z,99.99
2023-03-02T05:07:00.475Z,99.99
2023-03-02T05:08:00.537Z,99.99
2023-03-02T05:09:00.455Z,99.99
2023-03-02T05:10:00.459Z,99.99
2023-03-02T05:11:00.443Z,99.99
2023-03-02T05:12:00.437Z,99.99
2023-03-02T05:13:00.438Z,99.99
2023-03-02T05:14:00.428Z,99.99
2023-03-02T05:15:00.397Z,99.99
2023-03-02T05:16:00.445Z,99.99
2023-03-02T05:17:00.390Z,99.99
2023-03-02T05:18:00.408Z,99.99
2023-03-02T05:19:00.362Z,99.99
2023-03-02T05:20:00.362Z,99.99
2023-03-02T05:21:00.347Z,99.99
2023-03-02T05:22:00.338Z,99.99
2023-03-02T05:23:00.340Z,99.99
2023-03-02T05:24:00.323Z,99.99
2023-03-02T05:25:00.303Z,99.99
2023-03-02T05:26:00.306Z,99.99
2023-03-02T05:27:00.232Z,99.99
2023-03-02T05:28:00.297Z,99.99
2023-03-02T05:29:00.267Z,99.99
2023-03-02T05:30:00.224Z,99.99
2023-03-02T05:31:00.230Z,99.99
2023-03-02T05:32:00.236Z,99.99
2023-03-02T05:33:00.186Z,99.99
2023-03-02T05:34:00.172Z,99.99
2023-03-02T05:35:00.170Z,99.99
2023-03-02T05:36:00.215Z,99.99
2023-03-02T05:37:00.154Z,99.99
2023-03-02T05:38:00.207Z,99.99
2023-03-02T05:39:00.171Z,99.99
2023-03-02T05:40:00.139Z,99.99
2023-03-02T05:41:00.114Z,99.99
2023-03-02T05:42:00.116Z,99.99
2023-03-02T05:43:00.108Z,99.99
2023-03-02T05:44:00.136Z,99.99
2023-03-02T05:45:00.090Z,99.99
2023-03-02T05:46:00.070Z,99.99
2023-03-02T05:47:00.221Z,99.99
2023-03-02T05:48:00.061Z,99.99
2023-03-02T05:49:00.044Z,99.99
2023-03-02T05:50:00.027Z,99.99
2023-03-02T05:51:00.011Z,99.99
2023-03-02T05:52:00.002Z,99.99
2023-03-02T05:52:59.997Z,99.99
2023-03-02T05:53:59.999Z,99.99
2023-03-02T05:54:59.977Z,99.99
2023-03-02T05:55:59.975Z,99.99
2023-03-02T05:56:59.981Z,99.99
2023-03-02T05:57:59.976Z,99.99
2023-03-02T05:58:59.969Z,99.99
2023-03-02T05:59:59.931Z,99.99
2023-03-02T06:00:59.921Z,99.99
2023-03-02T06:01:59.927Z,99.93
2023-03-02T06:02:59.958Z,99.99
2023-03-02T06:03:59.929Z,99.99
2023-03-02T06:04:59.884Z,99.99
2023-03-02T06:05:59.864Z,99.99
2023-03-02T06:06:59.871Z,99.99
2023-03-02T06:07:59.856Z,99.63
2023-03-02T06:08:59.882Z,98.88
2023-03-02T06:09:59.829Z,98.68
2023-03-02T06:10:59.822Z,98.57
2023-03-02T06:11:59.808Z,97.93
2023-03-02T06:12:59.806Z,97.61
2023-03-02T06:13:59.810Z,98.36
2023-03-02T06:14:59.792Z,98.14
2023-03-02T06:15:59.837Z,98.14
2023-03-02T06:16:59.846Z,97.93
2023-03-02T06:17:59.752Z,98.78
2023-03-02T06:18:59.774Z,99.05
2023-03-02T06:19:59.732Z,98.69
2023-03-02T06:20:59.735Z,98.06
2023-03-02T06:21:59.714Z,97.63
2023-03-02T06:22:59.711Z,97.17
2023-03-02T06:23:59.733Z,96.64
2023-03-02T06:24:59.691Z,95.75
2023-03-02T06:25:59.677Z,94.90
2023-03-02T06:26:59.681Z,95.01
2023-03-02T06:27:59.659Z,94.48
2023-03-02T06:28:59.677Z,93.37
2023-03-02T06:29:59.640Z,93.73
2023-03-02T06:30:59.662Z,94.68
2023-03-02T06:31:59.760Z,96.47
2023-03-02T06:32:59.616Z,95.62
2023-03-02T06:33:59.698Z,95.03
2023-03-02T06:34:59.700Z,96.51
2023-03-02T06:35:59.668Z,97.47
2023-03-02T06:36:59.588Z,97.99
2023-03-02T06:37:59.562Z,97.99
2023-03-02T06:38:59.572Z,97.89
2023-03-02T06:39:59.541Z,98.42
2023-03-02T06:40:59.535Z,98.10
2023-03-02T06:41:59.522Z,97.57
2023-03-02T06:42:59.517Z,98.27
2023-03-02T06:43:59.525Z,97.31
2023-03-02T06:44:59.505Z,97.11
2023-03-02T06:45:59.527Z,96.58
2023-03-02T06:46:59.478Z,96.43
2023-03-02T06:47:59.471Z,96.11
2023-03-02T06:48:59.474Z,96.49
2023-03-02T06:49:59.446Z,96.19
2023-03-02T06:50:59.442Z,94.15
2023-03-02T06:51:59.423Z,92.06
2023-03-02T06:52:59.422Z,90.86
2023-03-02T06:53:59.421Z,90.08
2023-03-02T06:54:59.405Z,88.78
2023-03-02T06:55:59.395Z,88.00
2023-03-02T06:56:59.382Z,87.79
2023-03-02T06:57:59.368Z,87.65
2023-03-02T06:58:59.376Z,86.77
2023-03-02T06:59:59.350Z,85.78
2023-03-02T07:00:59.388Z,83.96
2023-03-02T07:02:05.352Z,84.59
2023-03-02T07:02:59.324Z,83.29
2023-03-02T07:03:59.469Z,81.64
2023-03-02T07:04:59.310Z,79.41
2023-03-02T07:05:59.299Z,78.43
2023-03-02T07:06:59.289Z,77.73
2023-03-02T07:07:59.282Z,76.37
2023-03-02T07:08:59.291Z,76.12
2023-03-02T07:09:59.255Z,75.01
2023-03-02T07:10:59.241Z,74.84
2023-03-02T07:11:59.238Z,74.00
2023-03-02T07:12:59.226Z,74.04
2023-03-02T07:13:59.228Z,74.07
2023-03-02T07:14:59.212Z,70.88
2023-03-02T07:15:59.213Z,69.38
2023-03-02T07:16:59.273Z,69.95
2023-03-02T07:17:59.173Z,69.71
2023-03-02T07:18:59.176Z,66.84
2023-03-02T07:19:59.152Z,65.99
2023-03-02T07:20:59.142Z,66.90
2023-03-02T07:21:59.152Z,65.89
2023-03-02T07:22:59.125Z,66.20
2023-03-02T07:23:59.119Z,67.21
2023-03-02T07:24:59.115Z,64.97
2023-03-02T07:25:59.089Z,64.62
2023-03-02T07:26:59.096Z,65.01
2023-03-02T07:27:59.074Z,62.61
2023-03-02T07:28:59.061Z,60.60
2023-03-02T07:29:59.057Z,60.93
2023-03-02T07:30:59.085Z,58.83
2023-03-02T07:31:59.071Z,59.74
2023-03-02T07:32:59.019Z,61.78
2023-03-02T07:33:59.024Z,60.05
2023-03-02T07:34:59.002Z,60.39
2023-03-02T07:35:59.038Z,61.19
2023-03-02T07:36:59.008Z,60.02
2023-03-02T07:37:58.978Z,59.81
2023-03-02T07:38:58.969Z,60.25
2023-03-02T07:40:00.701Z,60.28
2023-03-02T07:40:58.954Z,60.61
2023-03-02T07:41:58.959Z,58.51
2023-03-02T07:42:58.923Z,58.80
2023-03-02T07:43:58.923Z,57.66
2023-03-02T07:44:58.903Z,57.81
2023-03-02T07:45:59.653Z,58.25
2023-03-02T07:46:58.897Z,56.16
2023-03-02T07:47:58.868Z,56.83
2023-03-02T07:48:58.900Z,54.61
2023-03-02T07:49:58.847Z,54.27
2023-03-02T07:50:58.845Z,53.53
2023-03-02T07:51:58.828Z,52.78
2023-03-02T07:53:00.016Z,53.27
2023-03-02T07:53:58.829Z,55.49
2023-03-02T07:54:58.797Z,55.90
2023-03-02T07:55:58.791Z,56.47
2023-03-02T07:56:58.782Z,56.52
2023-03-02T07:57:58.770Z,56.03
2023-03-02T07:58:58.785Z,56.54
2023-03-02T07:59:58.745Z,60.10
2023-03-02T08:00:58.745Z,59.37
2023-03-02T08:01:58.759Z,59.34
2023-03-02T08:02:58.839Z,59.52
2023-03-02T08:03:58.724Z,58.00
2023-03-02T08:04:58.701Z,58.23
2023-03-02T08:05:58.689Z,59.06
2023-03-02T08:06:58.687Z,58.28
2023-03-02T08:07:58.669Z,57.87
2023-03-02T08:08:58.679Z,59.11
2023-03-02T08:09:58.642Z,57.79
2023-03-02T08:10:58.641Z,57.66
2023-03-02T08:11:58.628Z,57.68
2023-03-02T08:12:58.617Z,58.80
2023-03-02T08:13:58.616Z,57.81
2023-03-02T08:14:58.600Z,58.72
2023-03-02T08:15:58.640Z,57.24
2023-03-02T08:16:58.587Z,58.15
2023-03-02T08:17:58.565Z,57.99
2023-03-02T08:18:59.925Z,57.42
2023-03-02T08:19:58.542Z,58.59
2023-03-02T08:20:58.538Z,59.39
2023-03-02T08:21:58.546Z,58.46
2023-03-02T08:22:58.517Z,58.83
2023-03-02T08:23:58.570Z,59.27
2023-03-02T08:24:58.499Z,61.00
2023-03-02T08:25:58.492Z,60.27
2023-03-02T08:26:58.487Z,59.61
2023-03-02T08:27:58.463Z,60.22
2023-03-02T08:28:58.456Z,60.57
2023-03-02T08:29:58.540Z,59.74
2023-03-02T08:30:58.445Z,59.89
2023-03-02T08:31:58.632Z,61.00
2023-03-02T08:32:58.413Z,59.27
2023-03-02T08:33:58.416Z,60.46
2023-03-02T08:34:58.394Z,60.67
2023-03-02T08:35:58.582Z,60.67
2023-03-02T08:36:58.374Z,61.44
2023-03-02T08:37:58.376Z,59.83
2023-03-02T08:38:58.369Z,58.12
2023-03-02T08:39:58.913Z,56.73
2023-03-02T08:40:58.337Z,56.57
2023-03-02T08:41:58.326Z,56.23
2023-03-02T08:42:58.318Z,55.30
2023-03-02T08:43:58.308Z,53.47
2023-03-02T08:44:58.290Z,55.07
2023-03-02T08:45:58.314Z,57.37
2023-03-02T08:46:58.295Z,57.14
2023-03-02T08:47:58.301Z,59.24
2023-03-02T08:48:58.294Z,60.35
2023-03-02T08:49:58.239Z,57.94
2023-03-02T08:50:58.235Z,58.36
2023-03-02T08:51:58.236Z,58.89
2023-03-02T08:52:58.209Z,55.54
2023-03-02T08:53:58.209Z,53.50
2023-03-02T08:54:58.224Z,53.09
2023-03-02T08:55:58.174Z,52.94
2023-03-02T08:56:58.187Z,50.73
2023-03-02T08:57:58.157Z,49.86
2023-03-02T08:58:58.143Z,48.29
2023-03-02T08:59:58.131Z,48.47
2023-03-02T09:00:58.143Z,49.39
2023-03-02T09:01:58.132Z,50.40
2023-03-02T09:02:58.109Z,50.03
2023-03-02T09:03:58.113Z,52.37
2023-03-02T09:04:58.100Z,52.91
2023-03-02T09:05:58.072Z,54.04
2023-03-02T09:06:58.068Z,52.93
2023-03-02T09:07:58.054Z,53.01
2023-03-02T09:08:58.074Z,52.83
2023-03-02T09:09:58.033Z,52.06
2023-03-02T09:10:58.024Z,51.63
2023-03-02T09:11:58.009Z,51.06
2023-03-02T09:12:58.001Z,50.36
2023-03-02T09:13:57.996Z,50.70
2023-03-02T09:14:58.010Z,52.47
2023-03-02T09:15:57.966Z,52.58
2023-03-02T09:16:58.027Z,54.17
2023-03-02T09:17:57.996Z,52.33
2023-03-02T09:18:57.957Z,49.81
2023-03-02T09:19:57.947Z,48.61
2023-03-02T09:20:57.932Z,47.41
2023-03-02T09:21:57.909Z,47.16
2023-03-02T09:22:57.901Z,47.55
2023-03-02T09:23:57.912Z,45.64
2023-03-02T09:24:57.895Z,45.06
2023-03-02T09:25:57.866Z,44.51
2023-03-02T09:26:57.869Z,44.49
2023-03-02T09:27:57.851Z,44.04
2023-03-02T09:28:57.856Z,45.51
2023-03-02T09:29:57.849Z,46.79
2023-03-02T09:30:57.883Z,47.38
2023-03-02T09:31:57.962Z,46.11
2023-03-02T09:32:57.948Z,44.90
2023-03-02T09:33:57.787Z,46.58
2023-03-02T09:34:57.800Z,46.38
2023-03-02T09:35:57.772Z,46.97
2023-03-02T09:36:57.768Z,46.81
2023-03-02T09:37:57.791Z,49.60
2023-03-02T09:38:57.746Z,47.41
2023-03-02T09:39:57.742Z,46.11
2023-03-02T09:40:57.720Z,45.64
2023-03-02T09:41:57.704Z,47.41
2023-03-02T09:42:57.697Z,47.52
2023-03-02T09:43:59.918Z,44.86
2023-03-02T09:44:57.690Z,45.27
2023-03-02T09:45:57.730Z,46.64
2023-03-02T09:46:57.655Z,46.05
2023-03-02T09:47:57.651Z,46.81
2023-03-02T09:48:57.630Z,45.09
2023-03-02T09:49:57.637Z,47.97
2023-03-02T09:50:57.643Z,46.39
2023-03-02T09:51:57.593Z,43.91
2023-03-02T09:52:57.704Z,47.03
2023-03-02T09:53:57.689Z,45.78
2023-03-02T09:54:57.591Z,45.37
2023-03-02T09:55:57.551Z,45.35
2023-03-02T09:56:57.556Z,45.15
2023-03-02T09:57:57.552Z,46.50
2023-03-02T09:58:57.528Z,46.03
2023-03-02T10:00:01.760Z,47.34
2023-03-02T10:00:57.521Z,46.56
2023-03-02T10:01:57.494Z,44.90
2023-03-02T10:03:05.093Z,44.45
2023-03-02T10:03:57.536Z,45.25
2023-03-02T10:04:57.485Z,43.91
2023-03-02T10:05:57.463Z,43.26
2023-03-02T10:06:57.463Z,41.12
2023-03-02T10:07:59.364Z,40.96
2023-03-02T10:08:57.431Z,42.18
2023-03-02T10:09:57.426Z,43.00
2023-03-02T10:10:57.406Z,44.55
2023-03-02T10:11:57.389Z,43.49
2023-03-02T10:12:57.385Z,42.08
2023-03-02T10:13:57.377Z,43.61
2023-03-02T10:14:57.369Z,44.06
2023-03-02T10:15:57.374Z,43.94
2023-03-02T10:16:57.461Z,42.00
2023-03-02T10:17:57.348Z,43.18
2023-03-02T10:18:57.309Z,43.91
2023-03-02T10:19:57.320Z,45.00
2023-03-02T10:20:57.291Z,42.16
2023-03-02T10:21:57.286Z,41.82
2023-03-02T10:22:57.271Z,41.38
2023-03-02T10:23:57.352Z,42.96
2023-03-02T10:24:57.257Z,42.85
2023-03-02T10:25:57.243Z,40.80
2023-03-02T10:26:57.240Z,41.59
2023-03-02T10:27:57.264Z,40.01
2023-03-02T10:28:57.202Z,40.80
2023-03-02T10:29:57.210Z,42.35
2023-03-02T10:30:57.274Z,41.65
2023-03-02T10:31:57.191Z,42.16
2023-03-02T10:32:57.167Z,41.41
2023-03-02T10:33:57.171Z,40.67
2023-03-02T10:34:57.162Z,39.76
2023-03-02T10:35:57.139Z,41.57
2023-03-02T10:36:57.163Z,39.60
2023-03-02T10:37:57.115Z,39.42
2023-03-02T10:38:57.099Z,40.80
2023-03-02T10:39:57.118Z,40.53
2023-03-02T10:40:57.089Z,40.10
2023-03-02T10:41:57.092Z,40.67
2023-03-02T10:42:57.060Z,40.94
2023-03-02T10:43:57.052Z,41.59
2023-03-02T10:44:57.055Z,43.84
2023-03-02T10:45:57.078Z,46.12
2023-03-02T10:46:57.054Z,44.57
2023-03-02T10:47:57.020Z,42.71
2023-03-02T10:48:57.029Z,44.53
2023-03-02T10:49:57.004Z,42.57
2023-03-02T10:50:56.973Z,41.22
2023-03-02T10:51:56.989Z,42.21
2023-03-02T10:53:00.616Z,42.12
2023-03-02T10:53:56.957Z,41.53
2023-03-02T10:54:56.979Z,44.32
2023-03-02T10:55:56.930Z,43.18
2023-03-02T10:56:56.916Z,41.82
2023-03-02T10:57:56.904Z,41.88
2023-03-02T10:58:56.895Z,44.70
2023-03-02T10:59:56.898Z,44.84
2023-03-02T11:00:56.870Z,44.51
2023-03-02T11:01:56.975Z,44.38
2023-03-02T11:02:56.850Z,43.94
2023-03-02T11:03:56.848Z,43.44
2023-03-02T11:04:57.784Z,43.02
2023-03-02T11:05:56.827Z,44.18
2023-03-02T11:06:56.817Z,45.17
2023-03-02T11:07:56.805Z,43.79
2023-03-02T11:08:56.793Z,43.75
2023-03-02T11:09:56.820Z,44.12
2023-03-02T11:10:59.911Z,44.29
2023-03-02T11:11:57.017Z,46.81
2023-03-02T11:12:56.763Z,47.19
2023-03-02T11:13:56.744Z,47.64
2023-03-02T11:14:56.743Z,47.97
2023-03-02T11:15:56.758Z,46.93
2023-03-02T11:16:56.708Z,46.37
2023-03-02T11:17:56.701Z,46.15
2023-03-02T11:18:56.683Z,44.90
2023-03-02T11:19:56.696Z,42.96
2023-03-02T11:20:56.664Z,44.24
2023-03-02T11:21:56.664Z,45.51
2023-03-02T11:22:56.643Z,44.61
2023-03-02T11:23:56.652Z,43.53
2023-03-02T11:24:56.645Z,43.37
2023-03-02T11:25:56.619Z,41.92
2023-03-02T11:26:56.610Z,41.37
2023-03-02T11:27:56.595Z,41.86
2023-03-02T11:28:56.581Z,41.57
2023-03-02T11:29:56.592Z,43.57
2023-03-02T11:30:56.576Z,43.98
2023-03-02T11:31:56.730Z,41.98
2023-03-02T11:32:56.549Z,41.66
2023-03-02T11:34:01.903Z,40.50
2023-03-02T11:34:56.562Z,41.27
2023-03-02T11:35:56.553Z,41.06
2023-03-02T11:36:56.499Z,41.75
2023-03-02T11:37:56.494Z,41.02
2023-03-02T11:38:56.476Z,40.78
2023-03-02T11:39:56.477Z,43.37
2023-03-02T11:40:56.558Z,43.85
2023-03-02T11:41:56.468Z,43.44
2023-03-02T11:42:56.440Z,44.26
2023-03-02T11:43:56.439Z,46.53
2023-03-02T11:44:56.421Z,47.68
2023-03-02T11:45:56.423Z,48.30
2023-03-02T11:46:56.449Z,48.02
2023-03-02T11:48:02.570Z,46.98
2023-03-02T11:48:56.399Z,47.56
2023-03-02T11:49:56.413Z,48.96
2023-03-02T11:50:56.409Z,49.71
2023-03-02T11:51:58.278Z,47.31
2023-03-02T11:52:56.339Z,48.17
2023-03-02T11:53:56.387Z,48.58
2023-03-02T11:54:56.330Z,48.83
2023-03-02T11:55:56.336Z,47.89
2023-03-02T11:56:56.354Z,49.55
2023-03-02T11:57:56.290Z,49.34
2023-03-02T11:58:56.283Z,49.57
2023-03-02T11:59:56.280Z,49.05
2023-03-02T12:00:56.296Z,46.67
2023-03-02T12:01:56.270Z,48.63
2023-03-02T12:02:56.233Z,50.52
2023-03-02T12:03:56.230Z,48.60
2023-03-02T12:04:56.211Z,48.02
2023-03-02T12:05:56.228Z,46.80
2023-03-02T12:06:56.206Z,47.45
2023-03-02T12:07:56.196Z,47.19
2023-03-02T12:08:56.210Z,46.30
2023-03-02T12:09:56.172Z,46.67
2023-03-02T12:10:56.192Z,45.92
2023-03-02T12:11:56.142Z,45.42
2023-03-02T12:12:56.136Z,44.26
2023-03-02T12:13:56.126Z,46.06
2023-03-02T12:14:56.115Z,46.04
2023-03-02T12:15:56.140Z,45.16
2023-03-02T12:16:56.148Z,45.22
2023-03-02T12:17:56.107Z,44.59
2023-03-02T12:18:56.076Z,46.67
2023-03-02T12:19:56.073Z,46.57
2023-03-02T12:20:56.080Z,47.29
2023-03-02T12:21:56.050Z,47.85
2023-03-02T12:22:56.028Z,47.52
2023-03-02T12:23:56.034Z,47.55
2023-03-02T12:24:56.015Z,45.94
2023-03-02T12:25:56.056Z,46.51
2023-03-02T12:26:56.008Z,45.98
2023-03-02T12:27:55.985Z,46.79
2023-03-02T12:28:57.747Z,45.36
2023-03-02T12:29:55.968Z,44.92
2023-03-02T12:30:55.953Z,44.16
2023-03-02T12:31:56.200Z,42.39
2023-03-02T12:32:55.926Z,42.68
2023-03-02T12:33:55.930Z,42.14
2023-03-02T12:34:55.909Z,46.00
2023-03-02T12:35:55.922Z,44.40
2023-03-02T12:36:55.978Z,45.06
2023-03-02T12:37:55.936Z,45.22
2023-03-02T12:38:55.867Z,46.88
2023-03-02T12:39:55.862Z,46.12
2023-03-02T12:40:55.860Z,45.77
2023-03-02T12:41:55.852Z,46.06
2023-03-02T12:42:55.925Z,46.78
2023-03-02T12:43:55.833Z,47.82
2023-03-02T12:44:55.899Z,47.12
2023-03-02T12:45:56.021Z,45.89
2023-03-02T12:46:55.802Z,46.47
2023-03-02T12:47:55.887Z,43.75
2023-03-02T12:48:55.941Z,42.39
2023-03-02T12:49:55.758Z,43.30
2023-03-02T12:50:55.747Z,45.08
2023-03-02T12:51:55.890Z,46.43